| time (UTC) | temp C | wind direction | speed KPH | gust KPH | rain 1hr cm | rain 24hr cm | rain mn cm | humidity % | barometer mb |
| 20260506210015 | 30 | 353 | 16.1 | 37.0 | 0.00 | 0.00 | 0.00 | ||
| 20260506205515 | 30 | 317 | 0.0 | 11.3 | 0.00 | 0.00 | 0.00 | ||
| 20260506204011 | 30 | 0 | 8.0 | 19.3 | 0.00 | 0.00 | 0.00 | ||
| 20260506203512 | 29 | 359 | 8.0 | 17.7 | 0.00 | 0.00 | 0.00 | ||
| 20260506203016 | 29 | 341 | 8.0 | 17.7 | 0.00 | 0.00 | 0.00 | ||
| 20260506202517 | 29 | 0 | 1.6 | 11.3 | 0.00 | 0.00 | 0.00 | ||
| 20260506202018 | 29 | 312 | 4.8 | 14.5 | 0.00 | 0.00 | 0.00 | ||
| 20260506201011 | 29 | 0 | 1.6 | 11.3 | 0.00 | 0.00 | 0.00 | ||
| 20260506200016 | 29 | 356 | 6.4 | 12.9 | 0.00 | 0.00 | 0.00 | ||
| 20260506195459 | 29 | 353 | 4.8 | 12.9 | 0.00 | 0.00 | 0.00 | ||
| 20260506195023 | 29 | 346 | 8.0 | 12.9 | 0.00 | 0.00 | 0.00 | ||
| 20260506194515 | 28 | 359 | 4.8 | 12.9 | 0.00 | 0.00 | 0.00 | ||
| 20260506193503 | 28 | 355 | 0.0 | 11.3 | 0.00 | 0.00 | 0.00 | ||
| 20260506193007 | 28 | 325 | 3.2 | 12.9 | 0.00 | 0.00 | 0.00 | ||
| 20260506192505 | 28 | 357 | 8.0 | 12.9 | 0.00 | 0.00 | 0.00 | ||
| 20260506191520 | 28 | 347 | 3.2 | 16.1 | 0.00 | 0.00 | 0.00 | ||
| 20260506191003 | 28 | 357 | 8.0 | 14.5 | 0.00 | 0.00 | 0.00 | ||
| 20260506190005 | 27 | 0 | 1.6 | 12.9 | 0.00 | 0.00 | 0.00 | ||
| 20260506185506 | 27 | 359 | 1.6 | 14.5 | 0.00 | 0.00 | 0.00 | ||
| 20260506185025 | 27 | 0 | 6.4 | 14.5 | 0.00 | 0.00 | 0.00 | ||
| 20260506184515 | 27 | 321 | 3.2 | 11.3 | 0.00 | 0.00 | 0.00 | ||
| 20260506184015 | 27 | 0 | 3.2 | 11.3 | 0.00 | 0.00 | 0.00 | ||
| 20260506182959 | 26 | 0 | 6.4 | 14.5 | 0.00 | 0.00 | 0.00 | ||
| 20260506182501 | 26 | 0 | 6.4 | 14.5 | 0.00 | 0.00 | 0.00 | ||
| 20260506182023 | 26 | 358 | 8.0 | 12.9 | 0.00 | 0.00 | 0.00 | ||
| 20260506181514 | 26 | 0 | 1.6 | 11.3 | 0.00 | 0.00 | 0.00 | ||
| 20260506181013 | 26 | 35 | 4.8 | 11.3 | 0.00 | 0.00 | 0.00 | ||
| 20260506180516 | 26 | 339 | 4.8 | 11.3 | 0.00 | 0.00 | 0.00 | ||
| 20260506180016 | 26 | 0 | 3.2 | 9.7 | 0.00 | 0.00 | 0.00 | ||
| 20260506175500 | 25 | 359 | 0.0 | 12.9 | 0.00 | 0.00 | 0.00 | ||
| 20260506175020 | 25 | 350 | 6.4 | 14.5 | 0.00 | 0.00 | 0.00 | ||
| 20260506174512 | 25 | 356 | 9.7 | 14.5 | 0.00 | 0.00 | 0.00 | ||
| 20260506174012 | 25 | 337 | 8.0 | 14.5 | 0.00 | 0.00 | 0.00 | ||
| 20260506173515 | 25 | 334 | 1.6 | 12.9 | 0.00 | 0.00 | 0.00 | ||
| 20260506173015 | 25 | 0 | 6.4 | 12.9 | 0.00 | 0.00 | 0.00 | ||
| 20260506172515 | 24 | 0 | 3.2 | 12.9 | 0.00 | 0.00 | 0.00 | ||
| 20260506170515 | 23 | 355 | 9.7 | 14.5 | 0.00 | 0.00 | 0.00 | ||
| 20260506170017 | 23 | 359 | 9.7 | 12.9 | 0.00 | 0.00 | 0.00 | ||
| 20260506165518 | 23 | 344 | 4.8 | 11.3 | 0.00 | 0.00 | 0.00 | ||
| 20260506164514 | 22 | 0 | 1.6 | 12.9 | 0.00 | 0.00 | 0.00 | ||
| 20260506163515 | 22 | 336 | 4.8 | 17.7 | 0.00 | 0.00 | 0.00 | ||
| 20260506163016 | 22 | 0 | 6.4 | 17.7 | 0.00 | 0.00 | 0.00 | ||
| 20260506162502 | 22 | 357 | 4.8 | 12.9 | 0.00 | 0.00 | 0.00 | ||
| 20260506162025 | 21 | 18 | 4.8 | 11.3 | 0.00 | 0.00 | 0.00 | ||
| 20260506161517 | 21 | 335 | 4.8 | 11.3 | 0.00 | 0.00 | 0.00 | ||
| 20260506160521 | 21 | 357 | 3.2 | 11.3 | 0.00 | 0.00 | 0.00 | ||
| 20260506160019 | 21 | 347 | 1.6 | 11.3 | 0.00 | 0.00 | 0.00 | ||
| 20260506154500 | 20 | 347 | 6.4 | 12.9 | 0.00 | 0.00 | 0.00 | ||
| 20260506153959 | 20 | 349 | 8.0 | 11.3 | 0.00 | 0.00 | 0.00 | ||
| 20260506153501 | 20 | 228 | 1.6 | 9.7 | 0.00 | 0.00 | 0.00 | ||
| 20260506153003 | 20 | 350 | 3.2 | 9.7 | 0.00 | 0.00 | 0.00 | ||
| 20260506152504 | 20 | 0 | 4.8 | 9.7 | 0.00 | 0.00 | 0.00 | ||
| 20260506152004 | 19 | 357 | 3.2 | 6.4 | 0.00 | 0.00 | 0.00 | ||
| 20260506151525 | 19 | 0 | 1.6 | 6.4 | 0.00 | 0.00 | 0.00 | ||
| 20260506151014 | 18 | 317 | 0.0 | 4.8 | 0.00 | 0.00 | 0.00 | ||
| 20260506145505 | 18 | 252 | 0.0 | 4.8 | 0.00 | 0.00 | 0.00 | ||
| 20260506145004 | 18 | 354 | 0.0 | 6.4 | 0.00 | 0.00 | 0.00 | ||
| 20260506144527 | 18 | 304 | 1.6 | 6.4 | 0.00 | 0.00 | 0.00 | ||
| 20260506144018 | 17 | 0 | 0.0 | 6.4 | 0.00 | 0.00 | 0.00 | ||
| 20260506143500 | 17 | 359 | 1.6 | 6.4 | 0.00 | 0.00 | 0.00 | ||
| 20260506143020 | 17 | 0 | 3.2 | 8.0 | 0.00 | 0.00 | 0.00 | ||
| 20260506142521 | 17 | 359 | 3.2 | 8.0 | 0.00 | 0.00 | 0.00 | ||
| 20260506142002 | 17 | 278 | 3.2 | 6.4 | 0.00 | 0.00 | 0.00 | ||
| 20260506141524 | 16 | 31 | 0.0 | 6.4 | 0.00 | 0.00 | 0.00 | ||
| 20260506141014 | 16 | 345 | 3.2 | 6.4 | 0.00 | 0.00 | 0.00 | ||
| 20260506140518 | 16 | 0 | 0.0 | 3.2 | 0.00 | 0.00 | 0.00 | ||
| 20260506140000 | 16 | 0 | 0.0 | 1.6 | 0.00 | 0.00 | 0.00 | ||
| 20260506135026 | 16 | 0 | 0.0 | 1.6 | 0.00 | 0.00 | 0.00 | ||
| 20260506134002 | 15 | 0 | 0.0 | 1.6 | 0.00 | 0.00 | 0.00 | ||
| 20260506133007 | 15 | 0 | 0.0 | 1.6 | 0.00 | 0.00 | 0.00 | ||
| 20260506132509 | 15 | 0 | 0.0 | 1.6 | 0.00 | 0.00 | 0.00 | ||
| 20260506132009 | 15 | 0 | 0.0 | 0.0 | 0.00 | 0.00 | 0.00 | ||
| 20260506131503 | 15 | 0 | 0.0 | 0.0 | 0.00 | 0.00 | 0.00 | ||
| 20260506131004 | 15 | 0 | 0.0 | 1.6 | 0.00 | 0.00 | 0.00 | ||
| 20260506130504 | 15 | 0 | 0.0 | 1.6 | 0.00 | 0.00 | 0.00 | ||
| 20260506130004 | 15 | 0 | 0.0 | 1.6 | 0.00 | 0.00 | 0.00 | ||
| 20260506125505 | 15 | 0 | 0.0 | 3.2 | 0.00 | 0.00 | 0.00 | ||
| 20260506124521 | 15 | 0 | 0.0 | 3.2 | 0.00 | 0.00 | 0.00 | ||
| 20260506124018 | 15 | 0 | 0.0 | 1.6 | 0.00 | 0.00 | 0.00 | ||
| 20260506123517 | 15 | 0 | 0.0 | 1.6 | 0.00 | 0.00 | 0.00 | ||
| 20260506123020 | 15 | 0 | 0.0 | 0.0 | 0.00 | 0.00 | 0.00 | ||
| 20260506122504 | 15 | 0 | 0.0 | 0.0 | 0.00 | 0.00 | 0.00 | ||
| 20260506122005 | 15 | 0 | 0.0 | 0.0 | 0.00 | 0.00 | 0.00 | ||
| 20260506120003 | 15 | 0 | 0.0 | 0.0 | 0.00 | 0.00 | 0.00 | ||
| 20260506115505 | 15 | 0 | 0.0 | 1.6 | 0.00 | 0.00 | 0.00 | ||
| 20260506115006 | 15 | 0 | 0.0 | 1.6 | 0.00 | 0.00 | 0.00 | ||
| 20260506114528 | 15 | 0 | 0.0 | 1.6 | 0.00 | 0.00 | 0.00 | ||
| 20260506114000 | 15 | 0 | 0.0 | 0.0 | 0.00 | 0.00 | 0.00 | ||
| 20260506113004 | 15 | 0 | 0.0 | 0.0 | 0.00 | 0.00 | 0.00 | ||
| 20260506112505 | 15 | 0 | 0.0 | 0.0 | 0.00 | 0.00 | 0.00 | ||
| 20260506112024 | 15 | 0 | 0.0 | 0.0 | 0.00 | 0.00 | 0.00 | ||
| 20260506111515 | 15 | 0 | 0.0 | 1.6 | 0.00 | 0.00 | 0.00 | ||
| 20260506111016 | 15 | 0 | 0.0 | 1.6 | 0.00 | 0.00 | 0.00 | ||
| 20260506110509 | 15 | 0 | 0.0 | 1.6 | 0.00 | 0.00 | 0.00 | ||
| 20260506110010 | 16 | 0 | 0.0 | 0.0 | 0.00 | 0.00 | 0.00 | ||
| 20260506105514 | 16 | 0 | 0.0 | 1.6 | 0.00 | 0.00 | 0.00 | ||
| 20260506105014 | 16 | 0 | 0.0 | 1.6 | 0.00 | 0.00 | 0.00 | ||
| 20260506104505 | 16 | 0 | 0.0 | 1.6 | 0.00 | 0.00 | 0.00 | ||
| 20260506104007 | 16 | 0 | 0.0 | 1.6 | 0.00 | 0.00 | 0.00 | ||
| 20260506103011 | 16 | 0 | 0.0 | 1.6 | 0.00 | 0.00 | 0.00 | ||
| 20260506102513 | 16 | 0 | 0.0 | 1.6 | 0.00 | 0.00 | 0.00 | ||
| 20260506102018 | 16 | 0 | 0.0 | 1.6 | 0.00 | 0.00 | 0.00 | ||
| 20260506100500 | 16 | 0 | 0.0 | 0.0 | 0.00 | 0.00 | 0.00 | ||
| 20260506100002 | 16 | 0 | 0.0 | 1.6 | 0.00 | 0.00 | 0.00 | ||
| 20260506095505 | 16 | 0 | 0.0 | 1.6 | 0.00 | 0.00 | 0.00 | ||
| 20260506094501 | 16 | 0 | 0.0 | 1.6 | 0.00 | 0.00 | 0.00 | ||
| 20260506094001 | 17 | 0 | 0.0 | 1.6 | 0.00 | 0.00 | 0.00 | ||
| 20260506093506 | 17 | 0 | 0.0 | 1.6 | 0.00 | 0.00 | 0.00 | ||
| 20260506092510 | 17 | 0 | 0.0 | 1.6 | 0.00 | 0.00 | 0.00 | ||
| 20260506092012 | 17 | 0 | 0.0 | 1.6 | 0.00 | 0.00 | 0.00 | ||
| 20260506090014 | 17 | 0 | 0.0 | 1.6 | 0.00 | 0.00 | 0.00 | ||
| 20260506085513 | 17 | 0 | 0.0 | 0.0 | 0.00 | 0.00 | 0.00 | ||
| 20260506084508 | 17 | 0 | 0.0 | 1.6 | 0.00 | 0.00 | 0.00 | ||
| 20260506083512 | 17 | 0 | 0.0 | 1.6 | 0.00 | 0.00 | 0.00 | ||
| 20260506083011 | 17 | 0 | 0.0 | 1.6 | 0.00 | 0.00 | 0.00 | ||
| 20260506082514 | 17 | 0 | 0.0 | 1.6 | 0.00 | 0.00 | 0.00 | ||
| 20260506082013 | 17 | 0 | 0.0 | 0.0 | 0.00 | 0.00 | 0.00 | ||
| 20260506081506 | 17 | 0 | 0.0 | 0.0 | 0.00 | 0.00 | 0.00 | ||
| 20260506080508 | 18 | 0 | 0.0 | 0.0 | 0.00 | 0.00 | 0.00 | ||
| 20260506073016 | 18 | 0 | 0.0 | 4.8 | 0.00 | 0.00 | 0.00 | ||
| 20260506072516 | 18 | 0 | 0.0 | 3.2 | 0.00 | 0.00 | 0.00 | ||
| 20260506071513 | 19 | 0 | 0.0 | 3.2 | 0.00 | 0.00 | 0.00 | ||
| 20260506071012 | 19 | 0 | 0.0 | 3.2 | 0.00 | 0.00 | 0.00 | ||
| 20260506062023 | 20 | 345 | 0.0 | 4.8 | 0.00 | 0.00 | 0.00 | ||
| 20260506061516 | 20 | 0 | 0.0 | 6.4 | 0.00 | 0.00 | 0.00 | ||
| 20260506061014 | 20 | 0 | 0.0 | 3.2 | 0.00 | 0.00 | 0.00 | ||
| 20260506060516 | 20 | 0 | 0.0 | 1.6 | 0.00 | 0.00 | 0.00 | ||
| 20260506051016 | 21 | 0 | 0.0 | 4.8 | 0.00 | 0.00 | 0.00 | ||
| 20260506050516 | 22 | 0 | 0.0 | 4.8 | 0.00 | 0.00 | 0.00 | ||
| 20260506045021 | 22 | 0 | 1.6 | 8.0 | 0.00 | 0.00 | 0.00 | ||
| 20260506044511 | 22 | 0 | 0.0 | 3.2 | 0.00 | 0.00 | 0.00 | ||
| 20260506043517 | 22 | 0 | 0.0 | 1.6 | 0.00 | 0.00 | 0.00 | ||
| 20260506043017 | 22 | 0 | 0.0 | 3.2 | 0.00 | 0.00 | 0.00 | ||
| 20260506042519 | 22 | 359 | 0.0 | 9.7 | 0.00 | 0.00 | 0.00 | ||
| 20260506042021 | 22 | 325 | 0.0 | 9.7 | 0.00 | 0.00 | 0.00 | ||
| 20260506041513 | 22 | 349 | 4.8 | 9.7 | 0.00 | 0.00 | 0.00 | ||
| 20260506041014 | 22 | 0 | 0.0 | 9.7 | 0.00 | 0.00 | 0.00 | ||
| 20260506040515 | 23 | 0 | 3.2 | 9.7 | 0.00 | 0.00 | 0.00 | ||
| 20260506040016 | 23 | 0 | 1.6 | 6.4 | 0.00 | 0.00 | 0.00 | ||
| 20260506035500 | 23 | 0 | 1.6 | 11.3 | 0.00 | 0.00 | 0.00 | ||
| 20260506035022 | 23 | 0 | 0.0 | 11.3 | 0.00 | 0.00 | 0.00 | ||
| 20260506034516 | 23 | 0 | 1.6 | 11.3 | 0.00 | 0.00 | 0.00 | ||
| 20260506034016 | 23 | 359 | 1.6 | 11.3 | 0.00 | 0.00 | 0.00 | ||
| 20260506033459 | 23 | 0 | 4.8 | 9.7 | 0.00 | 0.00 | 0.00 | ||
| 20260506033000 | 23 | 0 | 4.8 | 12.9 | 0.00 | 0.00 | 0.00 | ||
| 20260506032501 | 23 | 0 | 3.2 | 12.9 | 0.00 | 0.00 | 0.00 | ||
| 20260506032021 | 23 | 0 | 6.4 | 12.9 | 0.00 | 0.00 | 0.00 | ||
| 20260506031516 | 23 | 0 | 6.4 | 11.3 | 0.00 | 0.00 | 0.00 | ||
| 20260506031016 | 23 | 354 | 3.2 | 12.9 | 0.00 | 0.00 | 0.00 | ||
| 20260506030519 | 23 | 0 | 1.6 | 16.1 | 0.00 | 0.00 | 0.00 | ||
| 20260506030020 | 23 | 333 | 8.0 | 19.3 | 0.00 | 0.00 | 0.00 | ||
| 20260506025522 | 23 | 0 | 4.8 | 19.3 | 0.00 | 0.00 | 0.00 | ||
| 20260506025000 | 23 | 356 | 6.4 | 12.9 | 0.00 | 0.00 | 0.00 | ||
| 20260506024003 | 24 | 355 | 4.8 | 16.1 | 0.00 | 0.00 | 0.00 | ||
| 20260506023504 | 24 | 0 | 4.8 | 16.1 | 0.00 | 0.00 | 0.00 | ||
| 20260506023005 | 24 | 0 | 3.2 | 16.1 | 0.00 | 0.00 | 0.00 | ||
| 20260506022505 | 24 | 359 | 3.2 | 16.1 | 0.00 | 0.00 | 0.00 | ||
| 20260506022027 | 24 | 279 | 6.4 | 16.1 | 0.00 | 0.00 | 0.00 | ||
| 20260506021459 | 25 | 357 | 6.4 | 14.5 | 0.00 | 0.00 | 0.00 | ||
| 20260506021000 | 25 | 0 | 8.0 | 12.9 | 0.00 | 0.00 | 0.00 | ||
| 20260506020503 | 25 | 0 | 4.8 | 11.3 | 0.00 | 0.00 | 0.00 | ||
| 20260506020003 | 25 | 0 | 1.6 | 9.7 | 0.00 | 0.00 | 0.00 | ||
| 20260506015506 | 25 | 337 | 1.6 | 11.3 | 0.00 | 0.00 | 0.00 | ||
| 20260506015028 | 25 | 357 | 6.4 | 12.9 | 0.00 | 0.00 | 0.00 | ||
| 20260506014518 | 25 | 315 | 6.4 | 12.9 | 0.00 | 0.00 | 0.00 | ||
| 20260506014019 | 25 | 353 | 4.8 | 9.7 | 0.00 | 0.00 | 0.00 | ||
| 20260506013000 | 26 | 0 | 3.2 | 14.5 | 0.00 | 0.00 | 0.00 | ||
| 20260506012503 | 26 | 356 | 9.7 | 14.5 | 0.00 | 0.00 | 0.00 | ||
| 20260506012005 | 26 | 334 | 1.6 | 11.3 | 0.00 | 0.00 | 0.00 | ||
| 20260506011528 | 26 | 194 | 3.2 | 8.0 | 0.00 | 0.00 | 0.00 | ||
| 20260506011017 | 26 | 311 | 0.0 | 9.7 | 0.00 | 0.00 | 0.00 | ||
| 20260506010518 | 26 | 212 | 0.0 | 11.3 | 0.00 | 0.00 | 0.00 | ||
| 20260506010018 | 26 | 0 | 6.4 | 11.3 | 0.00 | 0.00 | 0.00 | ||
| 20260506005517 | 26 | 353 | 0.0 | 8.0 | 0.00 | 0.00 | 0.00 | ||
| 20260506005018 | 26 | 180 | 0.0 | 4.8 | 0.00 | 0.00 | 0.00 | ||
| 20260506004510 | 26 | 183 | 0.0 | 4.8 | 0.00 | 0.00 | 0.00 | ||
| 20260506004010 | 26 | 240 | 0.0 | 8.0 | 0.00 | 0.00 | 0.00 | ||
| 20260506003511 | 26 | 357 | 4.8 | 12.9 | 0.00 | 0.00 | 0.00 | ||
| 20260506003016 | 26 | 0 | 4.8 | 14.5 | 0.00 | 0.00 | 0.00 | ||
| 20260506002020 | 26 | 355 | 3.2 | 12.9 | 0.00 | 0.00 | 0.00 | ||
| 20260506001512 | 26 | 106 | 0.0 | 9.7 | 0.00 | 0.00 | 0.00 | ||
| 20260506000515 | 26 | 0 | 1.6 | 12.9 | 0.00 | 0.00 | 0.00 | ||
| 20260506000015 | 26 | 0 | 4.8 | 11.3 | 0.00 | 0.00 | 0.00 | ||
| 20260505235020 | 26 | 349 | 1.6 | 12.9 | 0.00 | 0.00 | 0.00 | ||
| 20260505234015 | 26 | 138 | 4.8 | 11.3 | 0.00 | 0.00 | 0.00 | ||
| 20260505233519 | 26 | 0 | 3.2 | 9.7 | 0.00 | 0.00 | 0.00 | ||
| 20260505233022 | 26 | 0 | 0.0 | 6.4 | 0.00 | 0.00 | 0.00 | ||
| 20260505232513 | 26 | 242 | 1.6 | 8.0 | 0.00 | 0.00 | 0.00 | ||
| 20260505232017 | 26 | 359 | 3.2 | 8.0 | 0.00 | 0.00 | 0.00 | ||
| 20260505231519 | 26 | 353 | 0.0 | 6.4 | 0.00 | 0.00 | 0.00 | ||
| 20260505231002 | 26 | 0 | 3.2 | 11.3 | 0.00 | 0.00 | 0.00 | ||
| 20260505225508 | 26 | 309 | 6.4 | 12.9 | 0.00 | 0.00 | 0.00 | ||
| 20260505225010 | 26 | 348 | 3.2 | 12.9 | 0.00 | 0.00 | 0.00 | ||
| 20260505223504 | 26 | 358 | 4.8 | 17.7 | 0.00 | 0.00 | 0.00 | ||
| 20260505223006 | 26 | 352 | 1.6 | 17.7 | 0.00 | 0.00 | 0.00 | ||
| 20260505222505 | 26 | 346 | 6.4 | 17.7 | 0.00 | 0.00 | 0.00 | ||
| 20260505222026 | 26 | 0 | 8.0 | 14.5 | 0.00 | 0.00 | 0.00 | ||
| 20260505221521 | 26 | 358 | 3.2 | 14.5 | 0.00 | 0.00 | 0.00 | ||
| 20260505221001 | 26 | 0 | 6.4 | 12.9 | 0.00 | 0.00 | 0.00 | ||
| 20260505214504 | 26 | 358 | 12.9 | 19.3 | 0.00 | 0.00 | 0.00 | ||
| 20260505214006 | 26 | 359 | 6.4 | 14.5 | 0.00 | 0.00 | 0.00 | ||
| 20260505213506 | 25 | 353 | 3.2 | 14.5 | 0.00 | 0.00 | 0.00 | ||
| 20260505212012 | 26 | 202 | 0.0 | 16.1 | 0.00 | 0.00 | 0.00 |